sensor_id;sensor_type;location;lat;lon;timestamp;temperature;humidity
23283;DHT22;11810;51.178;3.878;2023-02-28T00:00:25;-0.30;99.90
23283;DHT22;11810;51.178;3.878;2023-02-28T00:02:51;-0.30;99.90
23283;DHT22;11810;51.178;3.878;2023-02-28T00:05:21;-0.20;99.90
23283;DHT22;11810;51.178;3.878;2023-02-28T00:07:48;-0.20;99.90
23283;DHT22;11810;51.178;3.878;2023-02-28T00:10:20;-0.20;99.90
23283;DHT22;11810;51.178;3.878;2023-02-28T00:12:50;-0.30;99.90
23283;DHT22;11810;51.178;3.878;2023-02-28T00:15:17;-0.30;99.90
23283;DHT22;11810;51.178;3.878;2023-02-28T00:17:43;-0.40;99.90
23283;DHT22;11810;51.178;3.878;2023-02-28T00:20:10;-0.40;99.90
23283;DHT22;11810;51.178;3.878;2023-02-28T00:22:42;-0.50;99.90
23283;DHT22;11810;51.178;3.878;2023-02-28T00:25:09;-0.50;99.90
23283;DHT22;11810;51.178;3.878;2023-02-28T00:27:36;-0.50;99.90
23283;DHT22;11810;51.178;3.878;2023-02-28T00:30:03;-0.50;99.90
23283;DHT22;11810;51.178;3.878;2023-02-28T00:32:30;-0.70;99.90
23283;DHT22;11810;51.178;3.878;2023-02-28T00:34:56;-0.50;99.90
23283;DHT22;11810;51.178;3.878;2023-02-28T00:37:22;-0.60;99.90
23283;DHT22;11810;51.178;3.878;2023-02-28T00:39:48;-0.60;99.90
23283;DHT22;11810;51.178;3.878;2023-02-28T00:42:14;-0.60;99.90
23283;DHT22;11810;51.178;3.878;2023-02-28T00:44:41;-0.60;99.90
23283;DHT22;11810;51.178;3.878;2023-02-28T00:47:07;-0.60;99.90
23283;DHT22;11810;51.178;3.878;2023-02-28T00:49:33;-0.60;99.90
23283;DHT22;11810;51.178;3.878;2023-02-28T00:51:59;-0.70;99.90
23283;DHT22;11810;51.178;3.878;2023-02-28T00:54:25;-0.60;99.90
23283;DHT22;11810;51.178;3.878;2023-02-28T00:56:50;-0.70;99.90
23283;DHT22;11810;51.178;3.878;2023-02-28T00:59:17;-0.60;99.90
23283;DHT22;11810;51.178;3.878;2023-02-28T01:01:45;-0.60;99.90
23283;DHT22;11810;51.178;3.878;2023-02-28T01:04:11;-0.70;99.90
23283;DHT22;11810;51.178;3.878;2023-02-28T01:08:07;-0.80;99.90
23283;DHT22;11810;51.178;3.878;2023-02-28T01:10:34;-0.90;99.90
23283;DHT22;11810;51.178;3.878;2023-02-28T01:14:09;-0.90;99.90
23283;DHT22;11810;51.178;3.878;2023-02-28T01:16:35;-1.00;99.90
23283;DHT22;11810;51.178;3.878;2023-02-28T01:19:01;-1.00;99.90
23283;DHT22;11810;51.178;3.878;2023-02-28T01:26:18;-1.00;99.90
23283;DHT22;11810;51.178;3.878;2023-02-28T01:28:45;-1.00;99.90
23283;DHT22;11810;51.178;3.878;2023-02-28T01:31:12;-1.00;99.90
23283;DHT22;11810;51.178;3.878;2023-02-28T01:33:38;-1.10;99.90
23283;DHT22;11810;51.178;3.878;2023-02-28T01:36:11;-1.00;99.90
23283;DHT22;11810;51.178;3.878;2023-02-28T01:38:38;-1.00;99.90
23283;DHT22;11810;51.178;3.878;2023-02-28T01:41:05;-1.00;99.90
23283;DHT22;11810;51.178;3.878;2023-02-28T01:43:58;-1.10;99.90
23283;DHT22;11810;51.178;3.878;2023-02-28T01:46:24;-1.10;99.90
23283;DHT22;11810;51.178;3.878;2023-02-28T01:49:14;-1.10;99.90
23283;DHT22;11810;51.178;3.878;2023-02-28T01:51:44;-1.10;99.90
23283;DHT22;11810;51.178;3.878;2023-02-28T01:54:20;-1.10;99.90
23283;DHT22;11810;51.178;3.878;2023-02-28T01:57:03;-1.00;99.90
23283;DHT22;11810;51.178;3.878;2023-02-28T01:59:51;-0.90;99.90
23283;DHT22;11810;51.178;3.878;2023-02-28T02:02:22;-0.90;99.90
23283;DHT22;11810;51.178;3.878;2023-02-28T02:06:16;-1.00;99.90
23283;DHT22;11810;51.178;3.878;2023-02-28T02:08:42;-1.10;99.90
23283;DHT22;11810;51.178;3.878;2023-02-28T02:12:43;-1.10;99.90
23283;DHT22;11810;51.178;3.878;2023-02-28T02:16:23;-1.20;99.90
23283;DHT22;11810;51.178;3.878;2023-02-28T02:25:54;-0.90;99.90
23283;DHT22;11810;51.178;3.878;2023-02-28T02:36:35;-1.00;99.90
23283;DHT22;11810;51.178;3.878;2023-02-28T02:46:42;-1.00;99.90
23283;DHT22;11810;51.178;3.878;2023-02-28T02:52:24;-0.90;99.90
23283;DHT22;11810;51.178;3.878;2023-02-28T02:54:55;-0.80;99.90
23283;DHT22;11810;51.178;3.878;2023-02-28T02:58:18;-0.80;99.90
23283;DHT22;11810;51.178;3.878;2023-02-28T03:00:49;-0.70;99.90
23283;DHT22;11810;51.178;3.878;2023-02-28T03:04:24;-0.70;99.90
23283;DHT22;11810;51.178;3.878;2023-02-28T03:06:52;-0.90;99.90
23283;DHT22;11810;51.178;3.878;2023-02-28T03:09:24;-0.90;99.90
23283;DHT22;11810;51.178;3.878;2023-02-28T03:35:30;0.40;99.90
23283;DHT22;11810;51.178;3.878;2023-02-28T03:38:24;0.60;99.90
23283;DHT22;11810;51.178;3.878;2023-02-28T03:42:32;0.60;99.90
23283;DHT22;11810;51.178;3.878;2023-02-28T03:45:04;0.60;99.90
23283;DHT22;11810;51.178;3.878;2023-02-28T03:47:41;0.80;99.90
23283;DHT22;11810;51.178;3.878;2023-02-28T03:51:27;0.80;99.90
23283;DHT22;11810;51.178;3.878;2023-02-28T03:53:59;0.80;99.90
23283;DHT22;11810;51.178;3.878;2023-02-28T03:57:37;0.90;99.90
23283;DHT22;11810;51.178;3.878;2023-02-28T04:00:12;1.00;99.90
23283;DHT22;11810;51.178;3.878;2023-02-28T04:02:39;1.10;99.90
23283;DHT22;11810;51.178;3.878;2023-02-28T04:08:30;1.40;99.90
23283;DHT22;11810;51.178;3.878;2023-02-28T04:11:04;1.60;99.90
23283;DHT22;11810;51.178;3.878;2023-02-28T04:13:31;1.70;99.90
23283;DHT22;11810;51.178;3.878;2023-02-28T04:15:57;1.80;99.90
23283;DHT22;11810;51.178;3.878;2023-02-28T04:18:23;1.80;99.90
23283;DHT22;11810;51.178;3.878;2023-02-28T04:20:49;1.90;99.90
23283;DHT22;11810;51.178;3.878;2023-02-28T04:23:15;2.00;99.90
23283;DHT22;11810;51.178;3.878;2023-02-28T04:25:41;2.10;99.90
23283;DHT22;11810;51.178;3.878;2023-02-28T04:28:07;2.20;99.90
23283;DHT22;11810;51.178;3.878;2023-02-28T04:31:33;2.30;99.90
23283;DHT22;11810;51.178;3.878;2023-02-28T04:34:00;2.30;99.90
23283;DHT22;11810;51.178;3.878;2023-02-28T04:36:26;2.20;99.90
23283;DHT22;11810;51.178;3.878;2023-02-28T04:38:52;2.30;99.90
23283;DHT22;11810;51.178;3.878;2023-02-28T04:42:34;2.40;99.90
23283;DHT22;11810;51.178;3.878;2023-02-28T04:45:35;2.50;99.90
23283;DHT22;11810;51.178;3.878;2023-02-28T04:48:01;2.60;99.90
23283;DHT22;11810;51.178;3.878;2023-02-28T04:50:27;2.50;99.90
23283;DHT22;11810;51.178;3.878;2023-02-28T04:52:53;2.50;99.90
23283;DHT22;11810;51.178;3.878;2023-02-28T04:55:20;2.60;99.90
23283;DHT22;11810;51.178;3.878;2023-02-28T04:57:46;2.60;99.90
23283;DHT22;11810;51.178;3.878;2023-02-28T05:00:12;2.60;99.90
23283;DHT22;11810;51.178;3.878;2023-02-28T05:02:40;2.70;99.90
23283;DHT22;11810;51.178;3.878;2023-02-28T05:05:06;2.70;99.90
23283;DHT22;11810;51.178;3.878;2023-02-28T05:07:32;2.60;99.90
23283;DHT22;11810;51.178;3.878;2023-02-28T05:09:58;2.70;99.90
23283;DHT22;11810;51.178;3.878;2023-02-28T05:12:24;2.60;99.90
23283;DHT22;11810;51.178;3.878;2023-02-28T05:14:50;2.70;99.90
23283;DHT22;11810;51.178;3.878;2023-02-28T05:17:16;2.80;99.90
23283;DHT22;11810;51.178;3.878;2023-02-28T05:19:42;2.80;99.90
23283;DHT22;11810;51.178;3.878;2023-02-28T05:22:13;3.00;99.90
23283;DHT22;11810;51.178;3.878;2023-02-28T05:24:40;3.00;99.90
23283;DHT22;11810;51.178;3.878;2023-02-28T05:27:08;3.00;99.90
23283;DHT22;11810;51.178;3.878;2023-02-28T05:29:34;3.00;99.90
23283;DHT22;11810;51.178;3.878;2023-02-28T05:32:09;3.10;99.90
23283;DHT22;11810;51.178;3.878;2023-02-28T05:34:37;3.10;99.90
23283;DHT22;11810;51.178;3.878;2023-02-28T05:37:03;3.10;99.90
23283;DHT22;11810;51.178;3.878;2023-02-28T05:39:29;3.00;99.90
23283;DHT22;11810;51.178;3.878;2023-02-28T05:41:55;3.00;99.90
23283;DHT22;11810;51.178;3.878;2023-02-28T05:44:21;3.10;99.90
23283;DHT22;11810;51.178;3.878;2023-02-28T05:46:47;3.10;99.90
23283;DHT22;11810;51.178;3.878;2023-02-28T05:49:13;3.10;99.90
23283;DHT22;11810;51.178;3.878;2023-02-28T05:51:39;3.10;99.90
23283;DHT22;11810;51.178;3.878;2023-02-28T05:54:06;3.20;99.90
23283;DHT22;11810;51.178;3.878;2023-02-28T05:56:43;3.20;99.90
23283;DHT22;11810;51.178;3.878;2023-02-28T05:59:13;3.30;99.90
23283;DHT22;11810;51.178;3.878;2023-02-28T06:01:44;3.20;99.90
23283;DHT22;11810;51.178;3.878;2023-02-28T06:04:18;3.10;99.90
23283;DHT22;11810;51.178;3.878;2023-02-28T06:06:47;3.30;99.90
23283;DHT22;11810;51.178;3.878;2023-02-28T06:09:14;3.20;99.90
23283;DHT22;11810;51.178;3.878;2023-02-28T06:12:45;3.30;99.90
23283;DHT22;11810;51.178;3.878;2023-02-28T06:15:15;3.10;99.90
23283;DHT22;11810;51.178;3.878;2023-02-28T06:17:43;3.30;99.90
23283;DHT22;11810;51.178;3.878;2023-02-28T06:20:11;3.20;99.90
23283;DHT22;11810;51.178;3.878;2023-02-28T06:22:39;3.20;99.90
23283;DHT22;11810;51.178;3.878;2023-02-28T06:27:46;3.00;99.90
23283;DHT22;11810;51.178;3.878;2023-02-28T06:30:14;3.20;99.90
23283;DHT22;11810;51.178;3.878;2023-02-28T06:36:50;3.30;99.90
23283;DHT22;11810;51.178;3.878;2023-02-28T06:40:56;3.40;99.90
23283;DHT22;11810;51.178;3.878;2023-02-28T06:43:24;3.40;99.90
23283;DHT22;11810;51.178;3.878;2023-02-28T06:45:50;3.50;99.90
23283;DHT22;11810;51.178;3.878;2023-02-28T06:48:19;3.50;99.90
23283;DHT22;11810;51.178;3.878;2023-02-28T06:50:45;3.20;99.90
23283;DHT22;11810;51.178;3.878;2023-02-28T06:53:12;3.40;99.90
23283;DHT22;11810;51.178;3.878;2023-02-28T06:55:39;3.40;99.90
23283;DHT22;11810;51.178;3.878;2023-02-28T06:58:05;3.50;99.90
23283;DHT22;11810;51.178;3.878;2023-02-28T07:00:51;3.40;99.90
23283;DHT22;11810;51.178;3.878;2023-02-28T07:03:18;3.50;99.90
23283;DHT22;11810;51.178;3.878;2023-02-28T07:05:45;3.40;99.90
23283;DHT22;11810;51.178;3.878;2023-02-28T07:08:11;3.50;99.90
23283;DHT22;11810;51.178;3.878;2023-02-28T07:10:37;3.60;99.90
23283;DHT22;11810;51.178;3.878;2023-02-28T07:13:04;3.60;99.90
23283;DHT22;11810;51.178;3.878;2023-02-28T07:15:30;3.70;99.90
23283;DHT22;11810;51.178;3.878;2023-02-28T07:17:56;3.90;99.90
23283;DHT22;11810;51.178;3.878;2023-02-28T07:20:23;3.90;99.90
23283;DHT22;11810;51.178;3.878;2023-02-28T07:22:49;3.70;99.90
23283;DHT22;11810;51.178;3.878;2023-02-28T07:25:23;3.70;99.90
23283;DHT22;11810;51.178;3.878;2023-02-28T07:27:49;3.70;99.90
23283;DHT22;11810;51.178;3.878;2023-02-28T07:30:15;3.70;99.90
23283;DHT22;11810;51.178;3.878;2023-02-28T07:33:54;3.70;99.90
23283;DHT22;11810;51.178;3.878;2023-02-28T07:36:21;3.80;99.90
23283;DHT22;11810;51.178;3.878;2023-02-28T07:38:48;3.90;99.90
23283;DHT22;11810;51.178;3.878;2023-02-28T07:41:20;3.90;99.90
23283;DHT22;11810;51.178;3.878;2023-02-28T07:43:47;4.00;99.90
23283;DHT22;11810;51.178;3.878;2023-02-28T07:46:15;4.00;99.90
23283;DHT22;11810;51.178;3.878;2023-02-28T07:48:41;3.90;99.90
23283;DHT22;11810;51.178;3.878;2023-02-28T07:51:07;4.10;99.90
23283;DHT22;11810;51.178;3.878;2023-02-28T07:53:33;4.20;99.90
23283;DHT22;11810;51.178;3.878;2023-02-28T07:56:01;4.10;99.90
23283;DHT22;11810;51.178;3.878;2023-02-28T07:58:28;4.30;99.90
23283;DHT22;11810;51.178;3.878;2023-02-28T08:00:55;4.40;99.90
23283;DHT22;11810;51.178;3.878;2023-02-28T08:03:22;4.50;99.90
23283;DHT22;11810;51.178;3.878;2023-02-28T08:05:48;4.40;99.90
23283;DHT22;11810;51.178;3.878;2023-02-28T08:08:15;4.60;99.90
23283;DHT22;11810;51.178;3.878;2023-02-28T08:10:42;4.50;99.90
23283;DHT22;11810;51.178;3.878;2023-02-28T08:13:08;4.70;99.90
23283;DHT22;11810;51.178;3.878;2023-02-28T08:15:35;4.80;99.90
23283;DHT22;11810;51.178;3.878;2023-02-28T08:18:01;4.60;99.90
23283;DHT22;11810;51.178;3.878;2023-02-28T08:20:27;4.60;99.90
23283;DHT22;11810;51.178;3.878;2023-02-28T08:22:54;4.60;99.90
23283;DHT22;11810;51.178;3.878;2023-02-28T08:25:20;4.70;99.90
23283;DHT22;11810;51.178;3.878;2023-02-28T08:27:46;4.50;99.90
23283;DHT22;11810;51.178;3.878;2023-02-28T08:32:00;4.50;99.90
23283;DHT22;11810;51.178;3.878;2023-02-28T08:34:26;4.50;99.90
23283;DHT22;11810;51.178;3.878;2023-02-28T08:36:52;4.40;99.90
23283;DHT22;11810;51.178;3.878;2023-02-28T08:39:18;4.60;99.90
23283;DHT22;11810;51.178;3.878;2023-02-28T08:41:45;4.60;99.90
23283;DHT22;11810;51.178;3.878;2023-02-28T08:44:11;4.70;99.90
23283;DHT22;11810;51.178;3.878;2023-02-28T08:46:38;4.80;99.90
23283;DHT22;11810;51.178;3.878;2023-02-28T08:49:04;5.00;99.90
23283;DHT22;11810;51.178;3.878;2023-02-28T08:51:30;4.90;99.90
23283;DHT22;11810;51.178;3.878;2023-02-28T08:53:59;4.90;99.90
23283;DHT22;11810;51.178;3.878;2023-02-28T08:56:26;4.90;99.90
23283;DHT22;11810;51.178;3.878;2023-02-28T08:58:53;4.90;99.90
23283;DHT22;11810;51.178;3.878;2023-02-28T09:01:26;4.90;99.90
23283;DHT22;11810;51.178;3.878;2023-02-28T09:03:53;5.20;99.90
23283;DHT22;11810;51.178;3.878;2023-02-28T09:06:21;5.20;99.90
23283;DHT22;11810;51.178;3.878;2023-02-28T09:08:47;5.30;99.90
23283;DHT22;11810;51.178;3.878;2023-02-28T09:11:14;5.30;99.90
23283;DHT22;11810;51.178;3.878;2023-02-28T09:13:40;5.30;99.90
23283;DHT22;11810;51.178;3.878;2023-02-28T09:16:10;5.40;99.90
23283;DHT22;11810;51.178;3.878;2023-02-28T09:18:37;5.30;99.90
23283;DHT22;11810;51.178;3.878;2023-02-28T09:21:05;5.00;99.90
23283;DHT22;11810;51.178;3.878;2023-02-28T09:24:08;5.20;99.90
23283;DHT22;11810;51.178;3.878;2023-02-28T09:26:34;5.10;99.90
23283;DHT22;11810;51.178;3.878;2023-02-28T09:29:00;5.20;99.90
23283;DHT22;11810;51.178;3.878;2023-02-28T09:31:28;5.20;99.90
23283;DHT22;11810;51.178;3.878;2023-02-28T09:33:56;5.20;99.90
23283;DHT22;11810;51.178;3.878;2023-02-28T09:36:23;5.20;99.90
23283;DHT22;11810;51.178;3.878;2023-02-28T09:38:49;5.20;99.90
23283;DHT22;11810;51.178;3.878;2023-02-28T09:41:25;5.20;99.90
23283;DHT22;11810;51.178;3.878;2023-02-28T09:43:58;5.20;99.90
23283;DHT22;11810;51.178;3.878;2023-02-28T09:48:54;5.10;99.90
23283;DHT22;11810;51.178;3.878;2023-02-28T09:52:17;5.20;99.90
23283;DHT22;11810;51.178;3.878;2023-02-28T09:54:45;5.30;99.90
23283;DHT22;11810;51.178;3.878;2023-02-28T09:57:19;5.40;99.90
23283;DHT22;11810;51.178;3.878;2023-02-28T10:06:44;5.50;99.90
23283;DHT22;11810;51.178;3.878;2023-02-28T10:08:45;5.50;99.90
23283;DHT22;11810;51.178;3.878;2023-02-28T10:11:16;5.40;99.90
23283;DHT22;11810;51.178;3.878;2023-02-28T10:18:56;5.40;99.90
23283;DHT22;11810;51.178;3.878;2023-02-28T10:21:27;5.50;99.90
23283;DHT22;11810;51.178;3.878;2023-02-28T10:24:02;5.70;99.90
23283;DHT22;11810;51.178;3.878;2023-02-28T10:26:31;5.90;99.90
23283;DHT22;11810;51.178;3.878;2023-02-28T10:28:57;5.90;99.90
23283;DHT22;11810;51.178;3.878;2023-02-28T10:31:23;5.90;99.90
23283;DHT22;11810;51.178;3.878;2023-02-28T10:33:49;6.20;99.90
23283;DHT22;11810;51.178;3.878;2023-02-28T10:36:18;6.20;99.90
23283;DHT22;11810;51.178;3.878;2023-02-28T10:38:46;6.40;99.90
23283;DHT22;11810;51.178;3.878;2023-02-28T10:41:33;6.50;99.90
23283;DHT22;11810;51.178;3.878;2023-02-28T10:44:30;6.70;99.90
23283;DHT22;11810;51.178;3.878;2023-02-28T10:46:57;6.90;99.90
23283;DHT22;11810;51.178;3.878;2023-02-28T10:49:27;7.40;99.90
23283;DHT22;11810;51.178;3.878;2023-02-28T10:52:01;7.90;99.90
23283;DHT22;11810;51.178;3.878;2023-02-28T10:57:19;8.70;99.90
23283;DHT22;11810;51.178;3.878;2023-02-28T10:59:46;9.20;99.90
23283;DHT22;11810;51.178;3.878;2023-02-28T11:04:57;11.50;99.90
23283;DHT22;11810;51.178;3.878;2023-02-28T11:07:23;12.40;99.90
23283;DHT22;11810;51.178;3.878;2023-02-28T11:09:52;13.30;99.90
23283;DHT22;11810;51.178;3.878;2023-02-28T11:12:38;12.40;99.90
23283;DHT22;11810;51.178;3.878;2023-02-28T11:18:00;12.90;99.90
23283;DHT22;11810;51.178;3.878;2023-02-28T11:20:30;12.70;99.90
23283;DHT22;11810;51.178;3.878;2023-02-28T11:22:58;13.20;99.90
23283;DHT22;11810;51.178;3.878;2023-02-28T11:25:37;13.10;99.90
23283;DHT22;11810;51.178;3.878;2023-02-28T11:28:05;13.60;99.90
23283;DHT22;11810;51.178;3.878;2023-02-28T11:30:33;13.90;99.90
23283;DHT22;11810;51.178;3.878;2023-02-28T11:33:00;13.70;99.30
23283;DHT22;11810;51.178;3.878;2023-02-28T11:38:00;13.90;98.60
23283;DHT22;11810;51.178;3.878;2023-02-28T11:54:01;14.70;96.70
23283;DHT22;11810;51.178;3.878;2023-02-28T11:56:37;14.90;94.90
23283;DHT22;11810;51.178;3.878;2023-02-28T11:59:32;15.30;95.30
23283;DHT22;11810;51.178;3.878;2023-02-28T12:03:06;15.90;92.90
23283;DHT22;11810;51.178;3.878;2023-02-28T12:13:24;13.80;93.20
23283;DHT22;11810;51.178;3.878;2023-02-28T12:16:09;14.20;92.80
23283;DHT22;11810;51.178;3.878;2023-02-28T12:18:53;14.40;90.70
23283;DHT22;11810;51.178;3.878;2023-02-28T12:27:09;13.50;90.30
23283;DHT22;11810;51.178;3.878;2023-02-28T12:30:02;14.50;90.50
23283;DHT22;11810;51.178;3.878;2023-02-28T12:32:32;14.10;88.80
23283;DHT22;11810;51.178;3.878;2023-02-28T12:37:36;14.20;88.10
23283;DHT22;11810;51.178;3.878;2023-02-28T12:40:22;14.40;88.10
23283;DHT22;11810;51.178;3.878;2023-02-28T12:43:00;14.30;83.80
23283;DHT22;11810;51.178;3.878;2023-02-28T12:45:50;14.30;83.70
23283;DHT22;11810;51.178;3.878;2023-02-28T12:49:10;13.80;82.60
23283;DHT22;11810;51.178;3.878;2023-02-28T12:51:12;13.50;83.10
23283;DHT22;11810;51.178;3.878;2023-02-28T12:58:55;12.90;87.50
23283;DHT22;11810;51.178;3.878;2023-02-28T13:10:15;12.50;80.40
23283;DHT22;11810;51.178;3.878;2023-02-28T13:12:53;12.50;81.00
23283;DHT22;11810;51.178;3.878;2023-02-28T13:15:27;12.30;80.50
23283;DHT22;11810;51.178;3.878;2023-02-28T13:17:58;12.00;81.80
23283;DHT22;11810;51.178;3.878;2023-02-28T13:20:47;12.10;82.90
23283;DHT22;11810;51.178;3.878;2023-02-28T13:26:12;11.70;81.40
23283;DHT22;11810;51.178;3.878;2023-02-28T13:28:58;11.80;83.20
23283;DHT22;11810;51.178;3.878;2023-02-28T13:31:25;11.80;82.60
23283;DHT22;11810;51.178;3.878;2023-02-28T13:36:29;11.30;83.40
23283;DHT22;11810;51.178;3.878;2023-02-28T13:38:56;11.40;82.20
23283;DHT22;11810;51.178;3.878;2023-02-28T13:44:19;11.20;80.50
23283;DHT22;11810;51.178;3.878;2023-02-28T14:00:20;9.30;86.10
23283;DHT22;11810;51.178;3.878;2023-02-28T14:05:25;8.90;88.30
23283;DHT22;11810;51.178;3.878;2023-02-28T14:07:56;9.00;89.50
23283;DHT22;11810;51.178;3.878;2023-02-28T14:12:55;9.30;89.00
23283;DHT22;11810;51.178;3.878;2023-02-28T14:15:45;9.20;90.00
23283;DHT22;11810;51.178;3.878;2023-02-28T14:19:09;9.20;90.00
23283;DHT22;11810;51.178;3.878;2023-02-28T14:35:50;8.70;89.90
23283;DHT22;11810;51.178;3.878;2023-02-28T14:38:35;8.60;90.50
23283;DHT22;11810;51.178;3.878;2023-02-28T14:41:05;8.60;91.00
23283;DHT22;11810;51.178;3.878;2023-02-28T14:43:32;8.70;90.80
23283;DHT22;11810;51.178;3.878;2023-02-28T14:46:02;8.40;90.70
23283;DHT22;11810;51.178;3.878;2023-02-28T14:48:30;8.70;91.80
23283;DHT22;11810;51.178;3.878;2023-02-28T14:51:00;9.00;91.40
23283;DHT22;11810;51.178;3.878;2023-02-28T14:53:29;9.20;90.30
23283;DHT22;11810;51.178;3.878;2023-02-28T14:55:55;9.10;91.50
23283;DHT22;11810;51.178;3.878;2023-02-28T14:58:32;9.20;91.30
23283;DHT22;11810;51.178;3.878;2023-02-28T15:01:01;9.00;91.50
23283;DHT22;11810;51.178;3.878;2023-02-28T15:03:38;9.10;91.50
23283;DHT22;11810;51.178;3.878;2023-02-28T15:06:17;9.30;91.00
23283;DHT22;11810;51.178;3.878;2023-02-28T15:08:44;9.10;90.80
23283;DHT22;11810;51.178;3.878;2023-02-28T15:11:16;9.10;89.60
23283;DHT22;11810;51.178;3.878;2023-02-28T15:13:52;9.00;90.20
23283;DHT22;11810;51.178;3.878;2023-02-28T15:18:54;9.20;90.90
23283;DHT22;11810;51.178;3.878;2023-02-28T15:21:31;8.90;91.00
23283;DHT22;11810;51.178;3.878;2023-02-28T15:26:41;8.30;91.70
23283;DHT22;11810;51.178;3.878;2023-02-28T15:29:19;8.30;92.20
23283;DHT22;11810;51.178;3.878;2023-02-28T15:32:04;8.50;92.10
23283;DHT22;11810;51.178;3.878;2023-02-28T15:34:42;8.50;92.20
23283;DHT22;11810;51.178;3.878;2023-02-28T15:39:56;8.20;92.60
23283;DHT22;11810;51.178;3.878;2023-02-28T15:42:23;8.20;93.70
23283;DHT22;11810;51.178;3.878;2023-02-28T15:47:12;8.20;93.00
23283;DHT22;11810;51.178;3.878;2023-02-28T15:49:52;8.50;93.30
23283;DHT22;11810;51.178;3.878;2023-02-28T15:55:20;8.50;92.90
23283;DHT22;11810;51.178;3.878;2023-02-28T15:58:00;8.60;93.30
23283;DHT22;11810;51.178;3.878;2023-02-28T16:00:31;8.50;94.00
23283;DHT22;11810;51.178;3.878;2023-02-28T16:03:00;8.50;93.70
23283;DHT22;11810;51.178;3.878;2023-02-28T16:05:30;8.20;94.90
23283;DHT22;11810;51.178;3.878;2023-02-28T16:07:59;7.90;94.40
23283;DHT22;11810;51.178;3.878;2023-02-28T16:10:27;7.50;95.40
23283;DHT22;11810;51.178;3.878;2023-02-28T16:12:55;7.30;97.00
23283;DHT22;11810;51.178;3.878;2023-02-28T16:15:29;7.00;97.40
23283;DHT22;11810;51.178;3.878;2023-02-28T16:17:57;6.80;97.40
23283;DHT22;11810;51.178;3.878;2023-02-28T16:20:29;6.70;98.30
23283;DHT22;11810;51.178;3.878;2023-02-28T16:22:56;6.50;99.00
23283;DHT22;11810;51.178;3.878;2023-02-28T16:25:42;6.40;99.90
23283;DHT22;11810;51.178;3.878;2023-02-28T16:28:22;6.40;99.90
23283;DHT22;11810;51.178;3.878;2023-02-28T16:30:51;6.30;99.90
23283;DHT22;11810;51.178;3.878;2023-02-28T16:33:18;6.20;99.90
23283;DHT22;11810;51.178;3.878;2023-02-28T16:35:44;6.10;99.90
23283;DHT22;11810;51.178;3.878;2023-02-28T16:38:10;6.10;99.90
23283;DHT22;11810;51.178;3.878;2023-02-28T16:40:36;6.00;99.90
23283;DHT22;11810;51.178;3.878;2023-02-28T16:43:07;5.80;99.90
23283;DHT22;11810;51.178;3.878;2023-02-28T16:45:34;5.70;99.90
23283;DHT22;11810;51.178;3.878;2023-02-28T16:48:00;5.70;99.90
23283;DHT22;11810;51.178;3.878;2023-02-28T16:50:28;5.70;99.90
23283;DHT22;11810;51.178;3.878;2023-02-28T16:52:55;5.50;99.90
23283;DHT22;11810;51.178;3.878;2023-02-28T16:55:23;5.50;99.90
23283;DHT22;11810;51.178;3.878;2023-02-28T16:58:01;5.30;99.90
23283;DHT22;11810;51.178;3.878;2023-02-28T17:00:30;5.30;99.90
23283;DHT22;11810;51.178;3.878;2023-02-28T17:02:57;5.30;99.90
23283;DHT22;11810;51.178;3.878;2023-02-28T17:05:25;5.20;99.90
23283;DHT22;11810;51.178;3.878;2023-02-28T17:07:52;5.10;99.90
23283;DHT22;11810;51.178;3.878;2023-02-28T17:10:21;5.10;99.90
23283;DHT22;11810;51.178;3.878;2023-02-28T17:12:47;4.90;99.90
23283;DHT22;11810;51.178;3.878;2023-02-28T17:15:15;4.90;99.90
23283;DHT22;11810;51.178;3.878;2023-02-28T17:17:42;4.80;99.90
23283;DHT22;11810;51.178;3.878;2023-02-28T17:20:15;4.60;99.90
23283;DHT22;11810;51.178;3.878;2023-02-28T17:22:41;4.40;99.90
23283;DHT22;11810;51.178;3.878;2023-02-28T17:25:09;4.30;99.90
23283;DHT22;11810;51.178;3.878;2023-02-28T17:27:36;4.30;99.90
23283;DHT22;11810;51.178;3.878;2023-02-28T17:30:09;4.20;99.90
23283;DHT22;11810;51.178;3.878;2023-02-28T17:32:38;4.00;99.90
23283;DHT22;11810;51.178;3.878;2023-02-28T17:35:05;3.80;99.90
23283;DHT22;11810;51.178;3.878;2023-02-28T17:41:05;3.70;99.90
23283;DHT22;11810;51.178;3.878;2023-02-28T17:43:31;3.60;99.90
23283;DHT22;11810;51.178;3.878;2023-02-28T17:45:57;3.60;99.90
23283;DHT22;11810;51.178;3.878;2023-02-28T17:48:24;3.50;99.90
23283;DHT22;11810;51.178;3.878;2023-02-28T17:50:50;3.50;99.90
23283;DHT22;11810;51.178;3.878;2023-02-28T17:53:16;3.40;99.90
23283;DHT22;11810;51.178;3.878;2023-02-28T17:55:42;3.40;99.90
23283;DHT22;11810;51.178;3.878;2023-02-28T17:58:11;3.30;99.90
23283;DHT22;11810;51.178;3.878;2023-02-28T18:00:38;3.20;99.90
23283;DHT22;11810;51.178;3.878;2023-02-28T18:03:04;3.20;99.90
23283;DHT22;11810;51.178;3.878;2023-02-28T18:05:31;3.00;99.90
23283;DHT22;11810;51.178;3.878;2023-02-28T18:09:05;2.90;99.90
23283;DHT22;11810;51.178;3.878;2023-02-28T18:15:09;2.60;99.90
23283;DHT22;11810;51.178;3.878;2023-02-28T18:17:35;2.70;99.90
23283;DHT22;11810;51.178;3.878;2023-02-28T18:21:08;2.70;99.90
23283;DHT22;11810;51.178;3.878;2023-02-28T18:25:39;2.40;99.90
23283;DHT22;11810;51.178;3.878;2023-02-28T18:28:06;2.30;99.90
23283;DHT22;11810;51.178;3.878;2023-02-28T18:33:05;2.10;99.90
23283;DHT22;11810;51.178;3.878;2023-02-28T18:35:31;2.00;99.90
23283;DHT22;11810;51.178;3.878;2023-02-28T18:40:13;2.00;99.90
23283;DHT22;11810;51.178;3.878;2023-02-28T18:42:40;2.00;99.90
23283;DHT22;11810;51.178;3.878;2023-02-28T18:45:07;2.00;99.90
23283;DHT22;11810;51.178;3.878;2023-02-28T18:47:34;1.90;99.90
23283;DHT22;11810;51.178;3.878;2023-02-28T18:49:59;1.70;99.90
23283;DHT22;11810;51.178;3.878;2023-02-28T18:52:25;1.60;99.90
23283;DHT22;11810;51.178;3.878;2023-02-28T18:54:51;1.60;99.90
23283;DHT22;11810;51.178;3.878;2023-02-28T18:57:17;1.50;99.90
23283;DHT22;11810;51.178;3.878;2023-02-28T18:59:43;1.40;99.90
23283;DHT22;11810;51.178;3.878;2023-02-28T19:02:09;1.40;99.90
23283;DHT22;11810;51.178;3.878;2023-02-28T19:04:35;1.30;99.90
23283;DHT22;11810;51.178;3.878;2023-02-28T19:09:07;1.30;99.90
23283;DHT22;11810;51.178;3.878;2023-02-28T19:11:33;1.30;99.90
23283;DHT22;11810;51.178;3.878;2023-02-28T19:14:16;1.40;99.90
23283;DHT22;11810;51.178;3.878;2023-02-28T19:16:42;1.30;99.90
23283;DHT22;11810;51.178;3.878;2023-02-28T19:21:08;1.10;99.90
23283;DHT22;11810;51.178;3.878;2023-02-28T19:24:18;1.00;99.90
23283;DHT22;11810;51.178;3.878;2023-02-28T19:27:23;1.00;99.90
23283;DHT22;11810;51.178;3.878;2023-02-28T19:29:51;0.90;99.90
23283;DHT22;11810;51.178;3.878;2023-02-28T19:32:19;0.90;99.90
23283;DHT22;11810;51.178;3.878;2023-02-28T19:34:45;0.80;99.90
23283;DHT22;11810;51.178;3.878;2023-02-28T19:38:20;0.90;99.90
23283;DHT22;11810;51.178;3.878;2023-02-28T19:40:46;0.80;99.90
23283;DHT22;11810;51.178;3.878;2023-02-28T19:44:20;0.70;99.90
23283;DHT22;11810;51.178;3.878;2023-02-28T19:46:46;0.60;99.90
23283;DHT22;11810;51.178;3.878;2023-02-28T19:50:22;0.50;99.90
23283;DHT22;11810;51.178;3.878;2023-02-28T19:52:48;0.50;99.90